Time,TemperatureF,DewpointF,PressureIn,WindDirection,WindDirectionDegrees,WindSpeedMPH,WindSpeedGustMPH,Humidity,HourlyPrecipIn,Conditions,Clouds,dailyrainin,SolarRadiationWatts/m^2,SoftwareType,DateUTC
2013-04-27 00:01:00,53.0,25.0,30.20,South,185,11.0,15.0,33,-99.99,,,-99.99,-0.100000,,2013-04-27 06:01:00,
2013-04-27 00:11:00,52.0,25.0,30.20,South,184,13.0,15.0,34,-99.99,,,-99.99,0.000000,,2013-04-27 06:11:00,
2013-04-27 00:21:00,52.0,25.0,30.20,South,183,12.0,14.0,34,-99.99,,,-99.99,0.000000,,2013-04-27 06:21:00,
2013-04-27 00:32:00,52.0,24.0,30.20,South,180,12.0,15.0,33,-99.99,,,-99.99,0.000000,,2013-04-27 06:32:00,
2013-04-27 00:41:00,52.0,24.0,30.20,South,178,12.0,14.0,33,-99.99,,,-99.99,-0.100000,,2013-04-27 06:41:00,
2013-04-27 00:51:00,52.0,24.0,30.20,South,177,12.0,14.0,33,-99.99,,,-99.99,0.000000,,2013-04-27 06:51:00,
2013-04-27 01:01:00,53.0,24.0,30.20,South,175,13.0,15.0,32,-99.99,,,-99.99,-0.100000,,2013-04-27 07:01:00,
2013-04-27 01:11:00,53.0,24.0,30.20,South,180,12.0,14.0,32,-99.99,,,-99.99,0.100000,,2013-04-27 07:11:00,
2013-04-27 01:21:00,52.0,24.0,30.20,South,180,12.0,14.0,32,-99.99,,,-99.99,0.000000,,2013-04-27 07:21:00,
2013-04-27 01:31:00,51.0,23.0,30.20,South,178,11.0,13.0,34,-99.99,,,-99.99,0.000000,,2013-04-27 07:31:00,
2013-04-27 01:41:00,51.0,23.0,30.20,South,178,11.0,12.0,33,-99.99,,,-99.99,0.000000,,2013-04-27 07:41:00,
2013-04-27 01:52:00,50.0,24.0,30.20,South,184,10.0,12.0,36,-99.99,,,-99.99,0.000000,,2013-04-27 07:52:00,
2013-04-27 02:01:00,49.0,24.0,30.20,South,177,9.0,12.0,38,-99.99,,,-99.99,0.000000,,2013-04-27 08:01:00,
2013-04-27 02:11:00,48.0,24.0,30.20,SSW,209,6.0,11.0,39,-99.99,,,-99.99,-0.100000,,2013-04-27 08:11:00,
2013-04-27 02:21:00,49.0,25.0,30.20,SW,227,5.0,7.0,39,-99.99,,,-99.99,-0.100000,,2013-04-27 08:21:00,
2013-04-27 02:33:00,47.0,25.0,30.20,SSW,203,6.0,7.0,43,-99.99,,,-99.99,-0.200000,,2013-04-27 08:33:00,
2013-04-27 02:41:00,45.0,26.0,30.20,SSW,208,6.0,8.0,46,-99.99,,,-99.99,0.000000,,2013-04-27 08:41:00,
2013-04-27 02:51:00,44.0,26.0,30.20,South,188,6.0,8.0,48,-99.99,,,-99.99,0.000000,,2013-04-27 08:51:00,
2013-04-27 03:01:00,46.0,26.0,30.20,WSW,248,4.0,6.0,45,-99.99,,,-99.99,-0.100000,,2013-04-27 09:01:00,
2013-04-27 03:11:00,43.0,28.0,30.20,NW,318,3.0,4.0,54,-99.99,,,-99.99,0.000000,,2013-04-27 09:11:00,
2013-04-27 03:21:00,42.0,28.0,30.20,NNW,347,7.0,9.0,57,-99.99,,,-99.99,0.000000,,2013-04-27 09:21:00,
2013-04-27 03:33:00,42.0,27.0,30.20,North,359,4.0,6.0,56,-99.99,,,-99.99,0.000000,,2013-04-27 09:33:00,
2013-04-27 03:42:00,41.0,27.0,30.20,NNE,31,4.0,6.0,58,-99.99,,,-99.99,-0.100000,,2013-04-27 09:42:00,
2013-04-27 03:53:00,40.0,27.0,30.20,NNE,15,5.0,7.0,58,-99.99,,,-99.99,0.100000,,2013-04-27 09:53:00,
2013-04-27 04:02:00,40.0,26.0,30.20,NE,55,5.0,6.0,58,-99.99,,,-99.99,-0.100000,,2013-04-27 10:02:00,
2013-04-27 04:11:00,38.0,26.0,30.21,ENE,61,3.0,4.0,61,-99.99,,,-99.99,0.000000,,2013-04-27 10:11:00,
2013-04-27 04:22:00,39.0,26.0,30.21,NE,36,4.0,6.0,60,-99.99,,,-99.99,-0.100000,,2013-04-27 10:22:00,
2013-04-27 04:32:00,40.0,27.0,30.21,North,4,2.0,4.0,58,-99.99,,,-99.99,0.000000,,2013-04-27 10:32:00,
2013-04-27 04:42:00,37.0,26.0,30.21,ENE,72,1.0,2.0,64,-99.99,,,-99.99,0.100000,,2013-04-27 10:42:00,
2013-04-27 04:52:00,36.0,25.0,30.21,SSE,161,3.0,4.0,65,-99.99,,,-99.99,-0.100000,,2013-04-27 10:52:00,
2013-04-27 05:02:00,38.0,26.0,30.21,WSW,240,2.0,2.0,60,-99.99,,,-99.99,0.000000,,2013-04-27 11:02:00,
2013-04-27 05:11:00,36.0,26.0,30.21,SW,225,2.0,4.0,65,-99.99,,,-99.99,0.000000,,2013-04-27 11:11:00,
2013-04-27 05:21:00,35.0,26.0,30.21,South,169,4.0,5.0,68,-99.99,,,-99.99,0.000000,,2013-04-27 11:21:00,
2013-04-27 05:31:00,36.0,25.0,30.22,East,88,6.0,7.0,64,-99.99,,,-99.99,0.000000,,2013-04-27 11:31:00,
2013-04-27 05:41:00,36.0,25.0,30.21,ESE,110,5.0,6.0,63,-99.99,,,-99.99,0.000000,,2013-04-27 11:41:00,
2013-04-27 05:51:00,36.0,25.0,30.21,ESE,104,5.0,6.0,63,-99.99,,,-99.99,0.000000,,2013-04-27 11:51:00,
2013-04-27 06:01:00,37.0,25.0,30.21,East,94,4.0,5.0,62,-99.99,,,-99.99,-0.100000,,2013-04-27 12:01:00,
2013-04-27 06:11:00,35.0,24.0,30.22,East,93,4.0,5.0,63,-99.99,,,-99.99,0.000000,,2013-04-27 12:11:00,
2013-04-27 06:21:00,34.0,24.0,30.22,ESE,117,4.0,5.0,65,-99.99,,,-99.99,0.000000,,2013-04-27 12:21:00,
2013-04-27 06:32:00,36.0,24.0,30.22,East,90,3.0,4.0,62,-99.99,,,-99.99,0.300000,,2013-04-27 12:32:00,
2013-04-27 06:42:00,36.0,24.0,30.23,East,92,3.0,4.0,60,-99.99,,,-99.99,2.000000,,2013-04-27 12:42:00,
2013-04-27 06:51:00,36.0,24.0,30.23,ESE,117,3.0,4.0,63,-99.99,,,-99.99,6.100000,,2013-04-27 12:51:00,
2013-04-27 07:01:00,36.0,24.0,30.23,ESE,103,3.0,4.0,61,-99.99,,,-99.99,15.200000,,2013-04-27 13:01:00,
2013-04-27 07:11:00,38.0,24.0,30.23,East,88,4.0,6.0,58,-99.99,,,-99.99,30.299999,,2013-04-27 13:11:00,
2013-04-27 07:21:00,36.0,25.0,30.23,ESE,112,6.0,8.0,63,-99.99,,,-99.99,51.799999,,2013-04-27 13:21:00,
2013-04-27 07:32:00,37.0,25.0,30.23,East,101,8.0,10.0,62,-99.99,,,-99.99,75.199997,,2013-04-27 13:32:00,
2013-04-27 07:41:00,40.0,26.0,30.23,East,96,5.0,6.0,58,-99.99,,,-99.99,109.699997,,2013-04-27 13:41:00,
2013-04-27 07:52:00,40.0,27.0,30.23,East,101,5.0,7.0,57,-99.99,,,-99.99,138.000000,,2013-04-27 13:52:00,
2013-04-27 08:02:00,43.0,28.0,30.24,ESE,123,5.0,6.0,54,-99.99,,,-99.99,164.000000,,2013-04-27 14:02:00,
2013-04-27 08:11:00,45.0,28.0,30.23,SE,124,3.0,4.0,51,-99.99,,,-99.99,193.800003,,2013-04-27 14:11:00,
2013-04-27 08:21:00,47.0,28.0,30.23,ESE,120,2.0,3.0,47,-99.99,,,-99.99,222.899994,,2013-04-27 14:21:00,
2013-04-27 08:31:00,48.0,28.0,30.23,North,0,2.0,2.0,46,-99.99,,,-99.99,254.800003,,2013-04-27 14:31:00,
2013-04-27 08:41:00,49.0,28.0,30.23,East,92,2.0,3.0,44,-99.99,,,-99.99,291.200012,,2013-04-27 14:41:00,
2013-04-27 08:52:00,52.0,29.0,30.23,NE,34,1.0,2.0,41,-99.99,,,-99.99,325.600006,,2013-04-27 14:52:00,
2013-04-27 09:01:00,53.0,28.0,30.24,NW,314,4.0,7.0,38,-99.99,,,-99.99,351.500000,,2013-04-27 15:01:00,
2013-04-27 09:11:00,53.0,29.0,30.25,NNW,337,7.0,9.0,39,-99.99,,,-99.99,384.600006,,2013-04-27 15:11:00,
2013-04-27 09:21:00,53.0,31.0,30.25,NNW,338,5.0,7.0,42,-99.99,,,-99.99,422.600006,,2013-04-27 15:21:00,
2013-04-27 09:33:00,54.0,30.0,30.25,WNW,282,6.0,8.0,38,-99.99,,,-99.99,454.299988,,2013-04-27 15:33:00,
2013-04-27 09:42:00,56.0,29.0,30.25,West,274,6.0,9.0,35,-99.99,,,-99.99,483.799988,,2013-04-27 15:42:00,
2013-04-27 09:52:00,57.0,28.0,30.25,WSW,248,7.0,11.0,33,-99.99,,,-99.99,514.099976,,2013-04-27 15:52:00,
2013-04-27 10:02:00,59.0,27.0,30.25,SW,227,8.0,10.0,29,-99.99,,,-99.99,545.000000,,2013-04-27 16:02:00,
2013-04-27 10:13:00,60.0,27.0,30.25,WSW,245,10.0,15.0,29,-99.99,,,-99.99,576.599976,,2013-04-27 16:13:00,
2013-04-27 10:22:00,60.0,28.0,30.25,WSW,238,9.0,12.0,29,-99.99,,,-99.99,603.900024,,2013-04-27 16:22:00,
2013-04-27 10:32:00,60.0,29.0,30.25,WSW,241,8.0,13.0,30,-99.99,,,-99.99,630.599976,,2013-04-27 16:32:00,
2013-04-27 10:42:00,60.0,29.0,30.25,SW,228,12.0,17.0,30,-99.99,,,-99.99,655.900024,,2013-04-27 16:42:00,
2013-04-27 10:52:00,61.0,30.0,30.25,SSW,208,9.0,14.0,30,-99.99,,,-99.99,681.099976,,2013-04-27 16:52:00,
2013-04-27 11:02:00,63.0,31.0,30.24,SW,232,12.0,15.0,30,-99.99,,,-99.99,701.799988,,2013-04-27 17:02:00,
2013-04-27 11:11:00,63.0,30.0,30.24,SW,225,12.0,15.0,29,-99.99,,,-99.99,726.500000,,2013-04-27 17:11:00,
2013-04-27 11:22:00,63.0,30.0,30.24,WSW,247,10.0,16.0,28,-99.99,,,-99.99,753.200012,,2013-04-27 17:22:00,
2013-04-27 11:31:00,64.0,29.0,30.24,SW,217,12.0,19.0,26,-99.99,,,-99.99,776.400024,,2013-04-27 17:31:00,
2013-04-27 11:42:00,65.0,29.0,30.24,WSW,239,12.0,17.0,26,-99.99,,,-99.99,803.000000,,2013-04-27 17:42:00,
2013-04-27 11:52:00,65.0,29.0,30.24,WSW,247,11.0,15.0,25,-99.99,,,-99.99,647.200012,,2013-04-27 17:52:00,
2013-04-27 12:02:00,66.0,29.0,30.24,WSW,250,9.0,14.0,25,-99.99,,,-99.99,842.000000,,2013-04-27 18:02:00,
2013-04-27 12:11:00,67.0,29.0,30.24,WSW,245,12.0,16.0,24,-99.99,,,-99.99,823.000000,,2013-04-27 18:11:00,
2013-04-27 12:21:00,67.0,29.0,30.23,SW,235,11.0,17.0,23,-99.99,,,-99.99,848.000000,,2013-04-27 18:21:00,
2013-04-27 12:32:00,67.0,28.0,30.23,SSW,211,13.0,17.0,22,-99.99,,,-99.99,758.700012,,2013-04-27 18:32:00,
2013-04-27 12:41:00,68.0,26.0,30.22,SW,234,16.0,20.0,20,-99.99,,,-99.99,892.000000,,2013-04-27 18:41:00,
2013-04-27 12:51:00,69.0,27.0,30.22,WSW,247,15.0,20.0,20,-99.99,,,-99.99,896.000000,,2013-04-27 18:51:00,
2013-04-27 13:01:00,69.0,25.0,30.22,SW,232,15.0,22.0,19,-99.99,,,-99.99,906.000000,,2013-04-27 19:01:00,
2013-04-27 13:11:00,69.0,26.0,30.21,WSW,255,13.0,22.0,19,-99.99,,,-99.99,909.000000,,2013-04-27 19:11:00,
2013-04-27 13:21:00,70.0,27.0,30.21,SW,223,17.0,24.0,20,-99.99,,,-99.99,914.000000,,2013-04-27 19:21:00,
2013-04-27 13:31:00,70.0,29.0,30.20,SW,236,13.0,22.0,21,-99.99,,,-99.99,908.000000,,2013-04-27 19:31:00,
2013-04-27 13:41:00,70.0,29.0,30.20,SW,232,15.0,21.0,21,-99.99,,,-99.99,889.000000,,2013-04-27 19:41:00,
2013-04-27 13:52:00,71.0,28.0,30.19,SW,226,19.0,26.0,20,-99.99,,,-99.99,880.000000,,2013-04-27 19:52:00,
2013-04-27 14:02:00,71.0,29.0,30.18,WSW,249,15.0,26.0,21,-99.99,,,-99.99,871.000000,,2013-04-27 20:02:00,
2013-04-27 14:11:00,71.0,28.0,30.18,WSW,244,17.0,24.0,20,-99.99,,,-99.99,858.000000,,2013-04-27 20:11:00,
2013-04-27 14:21:00,71.0,27.0,30.18,WSW,245,18.0,25.0,19,-99.99,,,-99.99,947.000000,,2013-04-27 20:21:00,
2013-04-27 14:31:00,71.0,27.0,30.18,WSW,244,18.0,24.0,19,-99.99,,,-99.99,942.000000,,2013-04-27 20:31:00,
2013-04-27 14:41:00,72.0,28.0,30.18,WSW,254,19.0,26.0,19,-99.99,,,-99.99,771.000000,,2013-04-27 20:41:00,
2013-04-27 14:52:00,72.0,29.0,30.17,WSW,248,17.0,22.0,20,-99.99,,,-99.99,747.000000,,2013-04-27 20:52:00,
2013-04-27 15:02:00,73.0,29.0,30.17,West,259,18.0,28.0,19,-99.99,,,-99.99,869.000000,,2013-04-27 21:02:00,
2013-04-27 15:11:00,73.0,29.0,30.16,WSW,250,18.0,27.0,19,-99.99,,,-99.99,906.000000,,2013-04-27 21:11:00,
2013-04-27 15:21:00,73.0,28.0,30.16,SW,234,19.0,24.0,18,-99.99,,,-99.99,876.000000,,2013-04-27 21:21:00,
2013-04-27 15:32:00,73.0,28.0,30.15,WSW,249,23.0,30.0,19,-99.99,,,-99.99,761.000000,,2013-04-27 21:32:00,
2013-04-27 15:42:00,72.0,27.0,30.15,WSW,241,21.0,26.0,18,-99.99,,,-99.99,753.299988,,2013-04-27 21:42:00,
2013-04-27 15:53:00,73.0,27.0,30.15,WSW,249,18.0,25.0,18,-99.99,,,-99.99,783.700012,,2013-04-27 21:53:00,
2013-04-27 16:02:00,73.0,27.0,30.14,WSW,245,21.0,28.0,18,-99.99,,,-99.99,709.599976,,2013-04-27 22:02:00,
2013-04-27 16:12:00,73.0,26.0,30.14,WSW,246,20.0,29.0,17,-99.99,,,-99.99,727.799988,,2013-04-27 22:12:00,
2013-04-27 16:22:00,73.0,26.0,30.13,WSW,246,21.0,28.0,17,-99.99,,,-99.99,761.200012,,2013-04-27 22:22:00,
2013-04-27 16:32:00,74.0,26.0,30.12,WSW,249,20.0,26.0,17,-99.99,,,-99.99,690.599976,,2013-04-27 22:32:00,
2013-04-27 16:42:00,73.0,25.0,30.12,WSW,244,23.0,29.0,17,-99.99,,,-99.99,662.200012,,2013-04-27 22:42:00,
2013-04-27 16:52:00,73.0,26.0,30.12,WSW,245,25.0,30.0,16,-99.99,,,-99.99,717.200012,,2013-04-27 22:52:00,
2013-04-27 17:02:00,73.0,26.0,30.12,WSW,251,21.0,28.0,17,-99.99,,,-99.99,571.200012,,2013-04-27 23:02:00,
2013-04-27 17:11:00,72.0,26.0,30.11,WSW,250,23.0,30.0,17,-99.99,,,-99.99,483.500000,,2013-04-27 23:11:00,
2013-04-27 17:22:00,72.0,25.0,30.11,WSW,245,21.0,29.0,16,-99.99,,,-99.99,415.600006,,2013-04-27 23:22:00,
2013-04-27 17:32:00,71.0,25.0,30.11,WSW,254,22.0,29.0,18,-99.99,,,-99.99,386.799988,,2013-04-27 23:32:00,
2013-04-27 17:42:00,72.0,26.0,30.10,WSW,244,20.0,26.0,17,-99.99,,,-99.99,593.299988,,2013-04-27 23:42:00,
2013-04-27 17:52:00,72.0,26.0,30.10,WSW,250,18.0,26.0,17,-99.99,,,-99.99,482.399994,,2013-04-27 23:52:00,
2013-04-27 18:01:00,72.0,24.0,30.10,WSW,250,21.0,27.0,16,-99.99,,,-99.99,389.500000,,2013-04-28 00:01:00,
2013-04-27 18:11:00,71.0,25.0,30.09,WSW,248,21.0,28.0,17,-99.99,,,-99.99,359.899994,,2013-04-28 00:11:00,
2013-04-27 18:21:00,71.0,24.0,30.09,WSW,250,22.0,27.0,17,-99.99,,,-99.99,340.100006,,2013-04-28 00:21:00,
2013-04-27 18:31:00,71.0,23.0,30.09,WSW,252,22.0,26.0,16,-99.99,,,-99.99,319.799988,,2013-04-28 00:31:00,
2013-04-27 18:42:00,70.0,21.0,30.08,WSW,248,18.0,23.0,15,-99.99,,,-99.99,321.399994,,2013-04-28 00:42:00,
2013-04-27 18:51:00,70.0,22.0,30.08,WSW,241,19.0,23.0,16,-99.99,,,-99.99,294.299988,,2013-04-28 00:51:00,
2013-04-27 19:01:00,70.0,23.0,30.07,WSW,243,22.0,27.0,17,-99.99,,,-99.99,279.600006,,2013-04-28 01:01:00,
2013-04-27 19:11:00,69.0,26.0,30.07,WSW,246,21.0,26.0,19,-99.99,,,-99.99,245.100006,,2013-04-28 01:11:00,
2013-04-27 19:21:00,69.0,26.0,30.06,WSW,242,18.0,24.0,19,-99.99,,,-99.99,202.899994,,2013-04-28 01:21:00,
2013-04-27 19:31:00,69.0,27.0,30.06,WSW,239,18.0,24.0,21,-99.99,,,-99.99,133.199997,,2013-04-28 01:31:00,
2013-04-27 19:41:00,68.0,29.0,30.06,WSW,238,17.0,23.0,22,-99.99,,,-99.99,126.199997,,2013-04-28 01:41:00,
2013-04-27 19:52:00,68.0,29.0,30.05,SW,236,17.0,24.0,23,-99.99,,,-99.99,56.900002,,2013-04-28 01:52:00,
2013-04-27 20:01:00,66.0,29.0,30.05,SW,225,15.0,19.0,25,-99.99,,,-99.99,16.900000,,2013-04-28 02:01:00,
2013-04-27 20:11:00,65.0,29.0,30.05,SW,231,17.0,22.0,26,-99.99,,,-99.99,10.600000,,2013-04-28 02:11:00,
2013-04-27 20:21:00,63.0,30.0,30.05,SW,222,14.0,17.0,27,-99.99,,,-99.99,8.600000,,2013-04-28 02:21:00,
2013-04-27 20:31:00,62.0,30.0,30.05,SW,228,13.0,16.0,29,-99.99,,,-99.99,5.400000,,2013-04-28 02:31:00,
2013-04-27 20:41:00,63.0,28.0,30.05,SW,234,19.0,24.0,25,-99.99,,,-99.99,3.400000,,2013-04-28 02:41:00,
2013-04-27 20:52:00,63.0,28.0,30.04,SW,225,18.0,23.0,26,-99.99,,,-99.99,0.800000,,2013-04-28 02:52:00,
2013-04-27 21:01:00,62.0,29.0,30.04,SW,217,16.0,19.0,28,-99.99,,,-99.99,0.200000,,2013-04-28 03:01:00,
2013-04-27 21:11:00,60.0,29.0,30.04,SW,214,13.0,16.0,31,-99.99,,,-99.99,0.000000,,2013-04-28 03:11:00,
2013-04-27 21:21:00,58.0,29.0,30.04,SW,219,14.0,17.0,33,-99.99,,,-99.99,-0.100000,,2013-04-28 03:21:00,
2013-04-27 21:32:00,58.0,29.0,30.05,SW,219,15.0,17.0,34,-99.99,,,-99.99,0.000000,,2013-04-28 03:32:00,
2013-04-27 21:42:00,58.0,29.0,30.05,SW,217,17.0,20.0,33,-99.99,,,-99.99,-0.100000,,2013-04-28 03:42:00,
2013-04-27 21:53:00,59.0,28.0,30.05,SW,215,18.0,21.0,31,-99.99,,,-99.99,-0.100000,,2013-04-28 03:53:00,
2013-04-27 22:02:00,60.0,28.0,30.05,SSW,212,17.0,21.0,30,-99.99,,,-99.99,-0.100000,,2013-04-28 04:02:00,
2013-04-27 22:13:00,58.0,28.0,30.05,SSW,210,17.0,20.0,31,-99.99,,,-99.99,-0.100000,,2013-04-28 04:13:00,
2013-04-27 22:22:00,59.0,28.0,30.05,SSW,209,17.0,19.0,30,-99.99,,,-99.99,-0.200000,,2013-04-28 04:22:00,
2013-04-27 22:32:00,59.0,27.0,30.05,SSW,211,18.0,21.0,29,-99.99,,,-99.99,-0.100000,,2013-04-28 04:32:00,
2013-04-27 22:42:00,60.0,26.0,30.05,SW,215,17.0,20.0,27,-99.99,,,-99.99,-0.100000,,2013-04-28 04:42:00,
2013-04-27 22:52:00,59.0,26.0,30.05,SW,216,17.0,22.0,27,-99.99,,,-99.99,-0.100000,,2013-04-28 04:52:00,
2013-04-27 23:02:00,59.0,26.0,30.06,SSW,208,17.0,21.0,28,-99.99,,,-99.99,-0.100000,,2013-04-28 05:02:00,
2013-04-27 23:12:00,57.0,25.0,30.05,SSW,209,17.0,22.0,29,-99.99,,,-99.99,-0.100000,,2013-04-28 05:12:00,
2013-04-27 23:22:00,57.0,26.0,30.05,SSW,203,20.0,25.0,29,-99.99,,,-99.99,-0.100000,,2013-04-28 05:22:00,
2013-04-27 23:32:00,57.0,25.0,30.05,SSW,210,19.0,22.0,28,-99.99,,,-99.99,-0.100000,,2013-04-28 05:32:00,
2013-04-27 23:42:00,57.0,25.0,30.05,SW,214,18.0,21.0,28,-99.99,,,-99.99,-0.100000,,2013-04-28 05:42:00,
2013-04-27 23:51:00,58.0,24.0,30.05,SW,215,19.0,23.0,27,-99.99,,,-99.99,-0.100000,,2013-04-28 05:51:00,